Ieper, Belgium
Current Conditions -  °F | °C
As of 5:55 AM on Saturday 25 Oct 2014 (Local Time) from EBFN Reporting Station
Haze Haze  
Wind Chill: 55°   Ceiling: 3500
Heat Index: 55°   Visibility: 2.5mi
Dew Point: 54°   Wind: 5mph
Humidity: 94%   Direction: 230°SW
Pressure: 30"   Gusts: NA
Location:  50.85°N, 2.89°E
Report Text: EBFN 250355Z 23004KT 4000 BR FEW005 BKN035 13/12 Q1016 GRN
Loading
Personal Weather Stations






























Interactive Weather Map
Tropical Storm Tracking
New forecast layout! Learn more

10-Day Weather Forecast

Advertisements
Track Severe Weather on mobile